Time;durP1;ratioP1;P1;durP2;ratioP2;P2;SDS_P1;SDS_P2;PMS_P1;PMS_P2;Temp;Humidity;BMP_temperature;BMP_pressure;BME280_temperature;BME280_humidity;BME280_pressure;Samples;Min_cycle;Max_cycle;Signal;HPM_P1;HPM_P2
2021/07/29 00:01:10;;;;;;;17.63;10.30;;;;;;;;;;3607194;39;20044;-54
2021/07/29 00:03:38;;;;;;;11.93;8.40;;;;;;;;;;3607321;39;20128;-56
2021/07/29 00:06:25;;;;;;;14.23;9.85;;;;;;;;;;3607749;39;20054;-53
2021/07/29 00:08:52;;;;;;;13.93;10.10;;;;;;;;;;3607437;39;20092;-56
2021/07/29 00:11:20;;;;;;;11.82;8.02;;;;;;;;;;3607933;39;20060;-56
2021/07/29 00:13:50;;;;;;;12.50;9.25;;;;;;;;;;3607437;39;20432;-56
2021/07/29 00:16:17;;;;;;;17.75;8.77;;;;;;;;;;3607367;39;20043;-55
2021/07/29 00:21:34;;;;;;;13.30;9.75;;;;;;;;;;3607398;39;20040;-56
2021/07/29 00:24:03;;;;;;;16.63;9.88;;;;;;;;;;3607953;39;20164;-54
2021/07/29 00:26:30;;;;;;;15.85;9.73;;;;;;;;;;3607509;39;20047;-53
2021/07/29 00:28:58;;;;;;;18.67;9.98;;;;;;;;;;3607794;39;20048;-55
2021/07/29 00:31:31;;;;;;;12.43;10.02;;;;;;;;;;3607392;39;20052;-56
2021/07/29 00:33:59;;;;;;;12.02;8.80;;;;;;;;;;3607373;39;20057;-54
2021/07/29 00:36:27;;;;;;;12.52;9.15;;;;;;;;;;3607165;39;20032;-54
2021/07/29 00:38:55;;;;;;;9.98;8.02;;;;;;;;;;3607031;39;20424;-52
2021/07/29 00:41:22;;;;;;;12.40;8.75;;;;;;;;;;3607464;39;20078;-55
2021/07/29 00:44:01;;;;;;;11.40;8.30;;;;;;;;;;3606143;39;20421;-56
2021/07/29 00:46:31;;;;;;;11.18;8.23;;;;;;;;;;3607680;39;20129;-56
2021/07/29 00:49:00;;;;;;;9.63;8.23;;;;;;;;;;3607512;39;20040;-55
2021/07/29 00:51:28;;;;;;;10.32;8.40;;;;;;;;;;3607380;39;20055;-55
2021/07/29 00:53:55;;;;;;;11.35;9.13;;;;;;;;;;3607100;39;20128;-56
2021/07/29 00:56:23;;;;;;;11.63;9.85;;;;;;;;;;3607357;39;20405;-54
2021/07/29 00:58:50;;;;;;;11.88;9.23;;;;;;;;;;3597714;39;20039;-54
2021/07/29 01:01:17;;;;;;;11.90;8.68;;;;;;;;;;3607404;39;20051;-55
2021/07/29 01:03:44;;;;;;;9.27;7.85;;;;;;;;;;3607019;39;20058;-56
2021/07/29 01:06:12;;;;;;;13.43;8.38;;;;;;;;;;3607051;39;20062;-54
2021/07/29 01:09:14;;;;;;;11.43;8.95;;;;;;;;;;3607116;39;20405;-54
2021/07/29 01:11:42;;;;;;;11.40;8.27;;;;;;;;;;3574977;40;20083;-54
2021/07/29 01:14:11;;;;;;;12.52;8.90;;;;;;;;;;3593081;40;20083;-55
2021/07/29 01:16:38;;;;;;;10.65;8.95;;;;;;;;;;3597222;40;20063;-56
2021/07/29 01:19:07;;;;;;;16.17;9.95;;;;;;;;;;3596753;39;20052;-56
2021/07/29 01:21:51;;;;;;;10.82;8.68;;;;;;;;;;3597152;40;20048;-54
2021/07/29 01:24:19;;;;;;;8.60;7.25;;;;;;;;;;3596637;40;20055;-53
2021/07/29 01:26:46;;;;;;;14.68;11.35;;;;;;;;;;3597124;40;20044;-52
2021/07/29 01:29:14;;;;;;;12.65;8.38;;;;;;;;;;3597074;40;20125;-54
2021/07/29 01:31:41;;;;;;;12.23;9.20;;;;;;;;;;3597184;40;20040;-56
2021/07/29 01:34:08;;;;;;;11.30;9.23;;;;;;;;;;3596847;40;20384;-55
2021/07/29 01:36:36;;;;;;;11.27;8.02;;;;;;;;;;3597038;40;20036;-52
2021/07/29 01:39:04;;;;;;;11.18;9.73;;;;;;;;;;3596650;40;20275;-54
2021/07/29 01:41:31;;;;;;;11.57;7.88;;;;;;;;;;3597294;40;20109;-52
2021/07/29 01:43:58;;;;;;;9.82;8.02;;;;;;;;;;3596951;40;20063;-54
2021/07/29 01:46:25;;;;;;;9.48;8.48;;;;;;;;;;3597156;40;20187;-50
2021/07/29 01:48:53;;;;;;;11.75;9.18;;;;;;;;;;3596895;40;20058;-52
2021/07/29 01:51:20;;;;;;;10.73;7.90;;;;;;;;;;3596733;40;20052;-52
2021/07/29 01:53:47;;;;;;;12.70;8.80;;;;;;;;;;3596934;39;20036;-54
2021/07/29 01:56:14;;;;;;;14.45;9.07;;;;;;;;;;3597747;40;20047;-52
2021/07/29 01:58:42;;;;;;;11.15;8.88;;;;;;;;;;3601460;39;20121;-55
2021/07/29 02:01:09;;;;;;;12.20;9.43;;;;;;;;;;3608432;39;20054;-54
2021/07/29 02:03:37;;;;;;;13.52;10.07;;;;;;;;;;3608376;39;20066;-53
2021/07/29 02:06:04;;;;;;;11.05;7.90;;;;;;;;;;3608670;39;20135;-54
2021/07/29 02:08:31;;;;;;;12.32;9.05;;;;;;;;;;3608461;39;20062;-53
2021/07/29 02:11:06;;;;;;;10.48;7.55;;;;;;;;;;3608162;39;20039;-54
2021/07/29 02:13:33;;;;;;;12.15;8.73;;;;;;;;;;3608366;39;20044;-56
2021/07/29 02:16:00;;;;;;;9.68;8.20;;;;;;;;;;3608215;39;20054;-56
2021/07/29 02:18:28;;;;;;;10.23;8.07;;;;;;;;;;3608189;39;20072;-52
2021/07/29 02:20:55;;;;;;;9.43;8.07;;;;;;;;;;3608536;39;20136;-54
2021/07/29 02:23:22;;;;;;;12.18;9.43;;;;;;;;;;3608150;39;20051;-53
2021/07/29 02:25:49;;;;;;;13.60;9.25;;;;;;;;;;3608366;39;20048;-55
2021/07/29 02:28:17;;;;;;;13.82;9.32;;;;;;;;;;3608330;39;20139;-54
2021/07/29 02:30:44;;;;;;;10.27;7.93;;;;;;;;;;3607987;39;20083;-54
2021/07/29 02:33:13;;;;;;;10.05;7.75;;;;;;;;;;3608305;39;20059;-55
2021/07/29 02:35:40;;;;;;;12.18;8.65;;;;;;;;;;3608022;39;20148;-54
2021/07/29 02:38:07;;;;;;;10.27;9.10;;;;;;;;;;3607234;39;20065;-55
2021/07/29 02:40:35;;;;;;;12.55;9.45;;;;;;;;;;3607544;39;20132;-53
2021/07/29 02:43:02;;;;;;;11.07;8.75;;;;;;;;;;3607501;39;20413;-52
2021/07/29 02:45:29;;;;;;;11.95;8.80;;;;;;;;;;3607994;39;20048;-54
2021/07/29 02:47:57;;;;;;;27.33;16.33;;;;;;;;;;3607970;39;20044;-52
2021/07/29 02:50:24;;;;;;;18.10;12.88;;;;;;;;;;3608067;39;20056;-55
2021/07/29 02:52:51;;;;;;;14.95;10.57;;;;;;;;;;3608008;39;20120;-54
2021/07/29 02:55:20;;;;;;;10.63;8.38;;;;;;;;;;3608457;39;20064;-54
2021/07/29 02:57:47;;;;;;;13.15;10.77;;;;;;;;;;3608076;39;20036;-54
2021/07/29 03:00:14;;;;;;;12.70;8.55;;;;;;;;;;3607857;39;20051;-55
2021/07/29 03:02:41;;;;;;;11.00;9.40;;;;;;;;;;3607943;39;20044;-56
2021/07/29 03:05:09;;;;;;;10.50;8.30;;;;;;;;;;3607922;39;20414;-59
2021/07/29 03:07:37;;;;;;;10.60;7.88;;;;;;;;;;3607569;39;20069;-52
2021/07/29 03:10:04;;;;;;;10.18;8.68;;;;;;;;;;3608270;39;20092;-56
2021/07/29 03:12:32;;;;;;;8.75;7.63;;;;;;;;;;3607658;39;20040;-55
2021/07/29 03:14:59;;;;;;;10.50;8.98;;;;;;;;;;3608125;39;20941;-54
2021/07/29 03:17:26;;;;;;;11.88;8.50;;;;;;;;;;3607601;39;20054;-57
2021/07/29 03:19:54;;;;;;;16.20;10.07;;;;;;;;;;3608071;39;20401;-57
2021/07/29 03:22:21;;;;;;;9.35;7.80;;;;;;;;;;3608256;39;20510;-56
2021/07/29 03:24:48;;;;;;;11.20;8.40;;;;;;;;;;3607664;39;20117;-56
2021/07/29 03:27:15;;;;;;;10.55;8.57;;;;;;;;;;3607689;39;20120;-56
2021/07/29 03:29:42;;;;;;;12.73;10.68;;;;;;;;;;3607714;39;20095;-59
2021/07/29 03:32:10;;;;;;;13.35;10.00;;;;;;;;;;3607643;39;20144;-55
2021/07/29 03:34:37;;;;;;;13.13;10.65;;;;;;;;;;3615367;39;20047;-55
2021/07/29 03:37:04;;;;;;;29.55;21.02;;;;;;;;;;3607271;39;20039;-60
2021/07/29 03:39:31;;;;;;;11.00;9.15;;;;;;;;;;3608159;39;20056;-56
2021/07/29 03:41:59;;;;;;;10.10;7.85;;;;;;;;;;3607790;39;20051;-60
2021/07/29 03:44:26;;;;;;;10.15;8.32;;;;;;;;;;3607752;39;20040;-59
2021/07/29 03:46:53;;;;;;;9.85;8.75;;;;;;;;;;3607696;39;20051;-58
2021/07/29 03:49:20;;;;;;;10.30;8.77;;;;;;;;;;3607274;39;20079;-59
2021/07/29 03:51:47;;;;;;;9.55;8.05;;;;;;;;;;3607828;39;20309;-60
2021/07/29 03:54:14;;;;;;;9.93;8.05;;;;;;;;;;3608429;39;20479;-59
2021/07/29 03:56:43;;;;;;;11.57;8.50;;;;;;;;;;3607702;39;20055;-61
2021/07/29 03:59:10;;;;;;;9.32;7.70;;;;;;;;;;3607715;39;20413;-59
2021/07/29 04:01:37;;;;;;;9.40;7.75;;;;;;;;;;3607471;39;20040;-58
2021/07/29 04:04:05;;;;;;;10.75;8.10;;;;;;;;;;3607548;39;20155;-60
2021/07/29 04:06:32;;;;;;;8.38;6.40;;;;;;;;;;3607760;39;20055;-58
2021/07/29 04:08:59;;;;;;;9.63;7.43;;;;;;;;;;3607686;39;20059;-59
2021/07/29 04:11:27;;;;;;;8.23;6.78;;;;;;;;;;3607739;39;20056;-58
2021/07/29 04:13:54;;;;;;;11.20;6.80;;;;;;;;;;3607828;39;20040;-58
2021/07/29 04:16:21;;;;;;;9.20;7.25;;;;;;;;;;3606754;39;20047;-58
2021/07/29 04:18:48;;;;;;;8.52;6.78;;;;;;;;;;3607524;39;20039;-57
2021/07/29 04:21:16;;;;;;;9.02;7.53;;;;;;;;;;3607407;39;20506;-59
2021/07/29 04:23:44;;;;;;;7.78;6.65;;;;;;;;;;3607267;39;20112;-60
2021/07/29 04:26:12;;;;;;;9.00;6.90;;;;;;;;;;3607637;39;20040;-59
2021/07/29 04:28:39;;;;;;;10.00;6.30;;;;;;;;;;3607454;39;20056;-60
2021/07/29 04:31:06;;;;;;;9.68;6.80;;;;;;;;;;3607583;39;20059;-59
2021/07/29 04:33:33;;;;;;;11.18;7.13;;;;;;;;;;3607498;39;20048;-58
2021/07/29 04:36:04;;;;;;;9.85;6.72;;;;;;;;;;3607009;39;20047;-59
2021/07/29 04:38:32;;;;;;;7.28;6.45;;;;;;;;;;3607406;39;20419;-59
2021/07/29 04:41:06;;;;;;;9.57;7.03;;;;;;;;;;3607119;39;20051;-58
2021/07/29 04:43:33;;;;;;;8.48;6.50;;;;;;;;;;3607346;39;20044;-59
2021/07/29 04:46:03;;;;;;;10.35;6.93;;;;;;;;;;3607302;39;20123;-58
2021/07/29 04:48:32;;;;;;;8.57;6.50;;;;;;;;;;3607306;39;20044;-58
2021/07/29 04:51:07;;;;;;;8.18;7.22;;;;;;;;;;3607582;39;20080;-58
2021/07/29 04:53:35;;;;;;;16.88;13.07;;;;;;;;;;3607085;39;20121;-58
2021/07/29 04:56:03;;;;;;;12.50;10.20;;;;;;;;;;3606938;39;20064;-59
2021/07/29 04:58:30;;;;;;;173.52;82.47;;;;;;;;;;3598068;39;20044;-57
2021/07/29 05:01:03;;;;;;;21.98;12.85;;;;;;;;;;3606573;39;20048;-59
2021/07/29 05:03:30;;;;;;;10.10;7.47;;;;;;;;;;3607319;39;20063;-60
2021/07/29 05:06:00;;;;;;;9.40;7.05;;;;;;;;;;3607284;39;20653;-60
2021/07/29 05:08:27;;;;;;;9.77;7.30;;;;;;;;;;3607155;39;20047;-61
2021/07/29 05:10:54;;;;;;;10.52;7.28;;;;;;;;;;3606899;39;20346;-58
2021/07/29 05:13:22;;;;;;;9.13;6.85;;;;;;;;;;3606485;39;20054;-60
2021/07/29 05:15:49;;;;;;;10.13;7.05;;;;;;;;;;3606884;39;20031;-60
2021/07/29 05:18:16;;;;;;;9.00;7.10;;;;;;;;;;3606881;39;20051;-60
2021/07/29 05:20:43;;;;;;;8.20;6.65;;;;;;;;;;3607032;39;20332;-60
2021/07/29 05:23:11;;;;;;;12.02;6.57;;;;;;;;;;3607263;39;20124;-60
2021/07/29 05:25:38;;;;;;;7.82;6.90;;;;;;;;;;3606670;39;20050;-59
2021/07/29 05:28:05;;;;;;;7.18;6.47;;;;;;;;;;3607260;39;20040;-60
2021/07/29 05:30:35;;;;;;;8.85;7.35;;;;;;;;;;3606171;39;20068;-60
2021/07/29 05:33:04;;;;;;;9.43;7.15;;;;;;;;;;3607199;39;20400;-60
2021/07/29 05:35:32;;;;;;;8.77;7.25;;;;;;;;;;3607067;39;20539;-62
2021/07/29 05:38:00;;;;;;;9.52;6.78;;;;;;;;;;3607118;39;20044;-64
2021/07/29 05:40:27;;;;;;;10.13;7.25;;;;;;;;;;3606887;39;20450;-60
2021/07/29 05:42:54;;;;;;;7.50;6.60;;;;;;;;;;3606710;39;20040;-59
2021/07/29 05:45:23;;;;;;;8.27;7.43;;;;;;;;;;3597570;39;20079;-59
2021/07/29 05:47:50;;;;;;;7.88;7.07;;;;;;;;;;3607108;39;20043;-60
2021/07/29 05:50:17;;;;;;;8.77;7.57;;;;;;;;;;3606748;39;20052;-61
2021/07/29 05:52:44;;;;;;;7.68;6.57;;;;;;;;;;3607022;39;20124;-62
2021/07/29 05:55:11;;;;;;;11.10;7.20;;;;;;;;;;3607303;39;20051;-60
2021/07/29 05:57:39;;;;;;;8.27;7.15;;;;;;;;;;3606713;39;20052;-60
2021/07/29 06:00:07;;;;;;;9.38;7.18;;;;;;;;;;3606590;39;20132;-62
2021/07/29 06:02:35;;;;;;;8.63;6.95;;;;;;;;;;3606183;39;20036;-60
2021/07/29 06:05:04;;;;;;;77.32;38.95;;;;;;;;;;3607020;39;20424;-60
2021/07/29 06:07:35;;;;;;;15.20;11.55;;;;;;;;;;3606569;39;20052;-62
2021/07/29 06:10:03;;;;;;;11.95;8.20;;;;;;;;;;3606701;39;20137;-62
2021/07/29 06:12:30;;;;;;;8.70;7.50;;;;;;;;;;3606814;39;20036;-61
2021/07/29 06:15:00;;;;;;;7.90;6.82;;;;;;;;;;3606426;39;20068;-60
2021/07/29 06:17:30;;;;;;;7.63;6.65;;;;;;;;;;3606911;39;20040;-60
2021/07/29 06:20:05;;;;;;;9.15;6.82;;;;;;;;;;3606622;39;20058;-62
2021/07/29 06:22:33;;;;;;;11.00;6.97;;;;;;;;;;3606776;39;20074;-60
2021/07/29 06:25:05;;;;;;;9.57;7.28;;;;;;;;;;3606844;39;20047;-60
2021/07/29 06:27:33;;;;;;;11.18;6.97;;;;;;;;;;3606281;39;20409;-62
2021/07/29 06:30:01;;;;;;;9.05;7.57;;;;;;;;;;3606776;39;20047;-61
2021/07/29 06:32:28;;;;;;;8.18;6.63;;;;;;;;;;3606480;39;20079;-61
2021/07/29 06:34:55;;;;;;;7.93;6.70;;;;;;;;;;3606633;39;20074;-60
2021/07/29 06:37:22;;;;;;;8.80;6.47;;;;;;;;;;3606286;39;20124;-61
2021/07/29 06:39:50;;;;;;;8.07;6.47;;;;;;;;;;3605984;39;20063;-61
2021/07/29 06:42:18;;;;;;;8.05;6.55;;;;;;;;;;3607743;39;20056;-61
2021/07/29 06:44:45;;;;;;;7.68;6.43;;;;;;;;;;3607793;39;20087;-61
2021/07/29 06:47:21;;;;;;;7.70;6.90;;;;;;;;;;3608136;39;20044;-61
2021/07/29 06:49:53;;;;;;;7.53;6.13;;;;;;;;;;3607965;39;20044;-62
2021/07/29 06:52:20;;;;;;;7.28;6.28;;;;;;;;;;3607713;39;20132;-63
2021/07/29 06:54:48;;;;;;;8.43;6.82;;;;;;;;;;3607937;39;20461;-61
2021/07/29 06:57:15;;;;;;;25.75;20.33;;;;;;;;;;3607813;39;20410;-61
2021/07/29 06:59:42;;;;;;;75.60;47.33;;;;;;;;;;3608171;39;20132;-59
2021/07/29 07:02:10;;;;;;;14.48;11.77;;;;;;;;;;3607997;39;20116;-59
2021/07/29 07:04:39;;;;;;;8.68;7.60;;;;;;;;;;3598621;39;20072;-61
2021/07/29 07:07:15;;;;;;;8.82;7.05;;;;;;;;;;3608085;39;20035;-63
2021/07/29 07:09:44;;;;;;;8.27;7.13;;;;;;;;;;3607195;39;20047;-62
2021/07/29 07:12:15;;;;;;;8.68;6.47;;;;;;;;;;3607862;39;20145;-61
2021/07/29 07:14:48;;;;;;;10.18;8.25;;;;;;;;;;3607777;39;20044;-61
2021/07/29 07:17:15;;;;;;;10.07;7.53;;;;;;;;;;3608503;39;20070;-60
2021/07/29 07:19:46;;;;;;;9.90;7.78;;;;;;;;;;3608587;39;20154;-59
2021/07/29 07:22:16;;;;;;;8.50;7.60;;;;;;;;;;3607894;39;20445;-60
2021/07/29 07:24:44;;;;;;;8.88;7.57;;;;;;;;;;3607579;39;20039;-61
2021/07/29 07:27:11;;;;;;;7.68;6.63;;;;;;;;;;3607065;39;20048;-60
2021/07/29 07:29:40;;;;;;;9.57;6.72;;;;;;;;;;3607929;39;20049;-61
2021/07/29 07:32:07;;;;;;;8.75;7.28;;;;;;;;;;3607654;39;20443;-61
2021/07/29 07:34:35;;;;;;;7.78;7.00;;;;;;;;;;3607734;39;20061;-63
2021/07/29 07:37:02;;;;;;;8.52;7.10;;;;;;;;;;3607656;39;20039;-60
2021/07/29 07:39:30;;;;;;;8.63;7.25;;;;;;;;;;3607899;39;20079;-59
2021/07/29 07:41:57;;;;;;;8.45;7.20;;;;;;;;;;3607371;39;20059;-60
2021/07/29 07:44:24;;;;;;;11.23;7.35;;;;;;;;;;3607620;39;20066;-60
2021/07/29 07:46:51;;;;;;;8.48;7.18;;;;;;;;;;3597460;39;20046;-61
2021/07/29 07:49:19;;;;;;;7.72;6.82;;;;;;;;;;3607476;39;20412;-60
2021/07/29 07:51:46;;;;;;;9.18;7.38;;;;;;;;;;3607313;39;20044;-62
2021/07/29 07:54:13;;;;;;;8.70;7.05;;;;;;;;;;3607270;39;20063;-60
2021/07/29 07:56:42;;;;;;;10.18;7.47;;;;;;;;;;3607659;39;20120;-61
2021/07/29 07:59:12;;;;;;;8.93;7.38;;;;;;;;;;3607553;39;20059;-61
2021/07/29 08:01:40;;;;;;;11.50;7.78;;;;;;;;;;3607683;39;20413;-61
2021/07/29 08:04:08;;;;;;;9.35;7.00;;;;;;;;;;3607380;39;20055;-60
2021/07/29 08:06:36;;;;;;;8.18;7.20;;;;;;;;;;3597983;39;20051;-61
2021/07/29 08:09:04;;;;;;;98.82;51.13;;;;;;;;;;3607496;39;20047;-59
2021/07/29 08:11:31;;;;;;;21.52;11.23;;;;;;;;;;3607790;39;20048;-60
2021/07/29 08:13:59;;;;;;;14.65;7.88;;;;;;;;;;3607647;39;20050;-59
2021/07/29 08:16:26;;;;;;;23.20;9.25;;;;;;;;;;3607314;39;20047;-56
2021/07/29 08:18:56;;;;;;;26.20;11.57;;;;;;;;;;3607648;39;20052;-56
2021/07/29 08:21:23;;;;;;;15.65;9.05;;;;;;;;;;3598030;39;20405;-60
2021/07/29 08:23:51;;;;;;;22.35;9.30;;;;;;;;;;3607491;39;20415;-60
2021/07/29 08:26:18;;;;;;;14.00;10.25;;;;;;;;;;3607145;39;20044;-53
2021/07/29 08:28:45;;;;;;;17.70;12.88;;;;;;;;;;3607220;39;20432;-60
2021/07/29 08:31:14;;;;;;;12.73;10.52;;;;;;;;;;3598016;39;20049;-60
2021/07/29 08:33:42;;;;;;;20.73;14.95;;;;;;;;;;3607490;39;20062;-53
2021/07/29 08:36:17;;;;;;;27.73;14.35;;;;;;;;;;3607885;39;20048;-65
2021/07/29 08:38:47;;;;;;;28.25;15.13;;;;;;;;;;3607322;39;20048;-59
2021/07/29 08:41:18;;;;;;;20.95;10.93;;;;;;;;;;3598115;39;20084;-57
2021/07/29 08:43:47;;;;;;;21.65;14.63;;;;;;;;;;3607364;39;20055;-61
2021/07/29 08:46:21;;;;;;;17.10;13.25;;;;;;;;;;3597647;39;20306;-60
2021/07/29 08:48:50;;;;;;;17.23;13.40;;;;;;;;;;3607220;39;20062;-56
2021/07/29 08:51:26;;;;;;;21.38;15.30;;;;;;;;;;3607372;39;20056;-56
2021/07/29 08:53:57;;;;;;;18.63;16.00;;;;;;;;;;3607358;39;20051;-58
2021/07/29 08:56:24;;;;;;;18.23;15.23;;;;;;;;;;3606707;39;20051;-56
2021/07/29 08:58:53;;;;;;;18.48;12.93;;;;;;;;;;3607250;39;20121;-61
2021/07/29 09:01:21;;;;;;;14.85;13.15;;;;;;;;;;3606790;39;20048;-56
2021/07/29 09:03:52;;;;;;;13.68;12.23;;;;;;;;;;3606397;39;20064;-65
2021/07/29 09:06:20;;;;;;;14.82;12.77;;;;;;;;;;3597543;39;20064;-58
2021/07/29 09:08:51;;;;;;;11.68;7.88;;;;;;;;;;3607472;39;20048;-57
2021/07/29 09:11:38;;;;;;;9.82;7.15;;;;;;;;;;3607011;39;20510;-65
2021/07/29 09:14:14;;;;;;;8.70;6.85;;;;;;;;;;3607263;39;20052;-63
2021/07/29 09:16:56;;;;;;;7.82;6.25;;;;;;;;;;3607126;39;20051;-59
2021/07/29 09:19:35;;;;;;;10.27;7.35;;;;;;;;;;3607269;39;20044;-63
2021/07/29 09:22:16;;;;;;;10.80;7.85;;;;;;;;;;3607002;39;20050;-59
2021/07/29 09:25:06;;;;;;;14.57;7.65;;;;;;;;;;3606838;39;20043;-58
2021/07/29 09:27:38;;;;;;;16.90;7.85;;;;;;;;;;3606936;39;20047;-54
2021/07/29 09:30:27;;;;;;;25.55;9.57;;;;;;;;;;3607003;39;20106;-57
2021/07/29 09:33:04;;;;;;;14.73;6.20;;;;;;;;;;3606646;39;20039;-55
2021/07/29 09:35:32;;;;;;;7.32;4.45;;;;;;;;;;3607588;39;20059;-59
2021/07/29 09:38:06;;;;;;;7.63;4.32;;;;;;;;;;3596269;40;20033;-60
2021/07/29 09:40:46;;;;;;;4.82;2.92;;;;;;;;;;3596889;40;20047;-58
2021/07/29 09:43:16;;;;;;;3.53;2.75;;;;;;;;;;3596815;40;20056;-61
2021/07/29 09:45:46;;;;;;;5.00;2.78;;;;;;;;;;3596428;39;20043;-59
2021/07/29 09:48:14;;;;;;;3.90;2.60;;;;;;;;;;3596537;40;20090;-60
2021/07/29 09:50:42;;;;;;;3.22;2.20;;;;;;;;;;3596290;40;20068;-58
2021/07/29 09:53:10;;;;;;;7.57;2.60;;;;;;;;;;3596548;40;20059;-54
2021/07/29 09:55:38;;;;;;;2.50;1.30;;;;;;;;;;3596039;40;20076;-59
2021/07/29 09:58:05;;;;;;;3.03;1.65;;;;;;;;;;3596823;40;20050;-61
2021/07/29 10:00:37;;;;;;;5.15;1.60;;;;;;;;;;3595646;40;20121;-61
2021/07/29 10:03:07;;;;;;;1.87;1.40;;;;;;;;;;3596947;40;20044;-54
2021/07/29 10:05:58;;;;;;;2.67;1.30;;;;;;;;;;3596425;39;20429;-53
2021/07/29 10:08:37;;;;;;;4.30;1.90;;;;;;;;;;3596567;40;20079;-56
2021/07/29 10:11:11;;;;;;;3.13;1.73;;;;;;;;;;3589865;40;20068;-54
2021/07/29 10:13:39;;;;;;;;;;;;;;;;;;3587168;40;20419;-59
2021/07/29 10:16:18;;;;;;;5.65;2.08;;;;;;;;;;3586913;40;20039;-58
2021/07/29 10:18:50;;;;;;;4.13;2.80;;;;;;;;;;3588112;40;20099;-53
2021/07/29 10:21:26;;;;;;;5.35;3.15;;;;;;;;;;3587419;40;20515;-58
2021/07/29 10:23:58;;;;;;;5.93;2.70;;;;;;;;;;3587987;40;20052;-59
2021/07/29 10:26:27;;;;;;;4.25;3.03;;;;;;;;;;3588338;40;20161;-60
2021/07/29 10:29:19;;;;;;;4.88;2.25;;;;;;;;;;3586847;40;20064;-58
2021/07/29 10:31:55;;;;;;;4.00;2.17;;;;;;;;;;3588216;40;20137;-59
2021/07/29 10:34:33;;;;;;;3.40;2.13;;;;;;;;;;3587507;40;20084;-58
2021/07/29 10:37:04;;;;;;;4.25;2.45;;;;;;;;;;3598076;39;20055;-62
2021/07/29 10:39:59;;;;;;;4.28;2.13;;;;;;;;;;3607963;39;20063;-60
2021/07/29 10:42:28;;;;;;;3.45;1.83;;;;;;;;;;3607772;39;20055;-61
2021/07/29 10:44:56;;;;;;;4.38;2.35;;;;;;;;;;3608075;39;20048;-61
2021/07/29 10:47:38;;;;;;;4.03;2.00;;;;;;;;;;3607998;39;20635;-60
2021/07/29 10:50:08;;;;;;;3.72;2.08;;;;;;;;;;3607968;39;20074;-61
2021/07/29 10:52:36;;;;;;;2.67;1.95;;;;;;;;;;3608084;39;20096;-58
2021/07/29 10:55:07;;;;;;;3.60;2.45;;;;;;;;;;3608320;39;20053;-57
2021/07/29 10:57:34;;;;;;;3.75;2.50;;;;;;;;;;3608212;39;20047;-57
2021/07/29 11:00:02;;;;;;;2.72;2.03;;;;;;;;;;3608167;39;20078;-60
2021/07/29 11:02:40;;;;;;;4.25;3.00;;;;;;;;;;3608223;39;20434;-60
2021/07/29 11:05:09;;;;;;;6.03;2.72;;;;;;;;;;3608199;39;20211;-59
2021/07/29 11:07:43;;;;;;;4.30;2.58;;;;;;;;;;3607683;39;20056;-60
2021/07/29 11:10:13;;;;;;;77.55;48.10;;;;;;;;;;3607931;39;20047;-60
2021/07/29 11:12:41;;;;;;;80.18;40.13;;;;;;;;;;3607698;39;20055;-58
2021/07/29 11:15:09;;;;;;;16.75;8.00;;;;;;;;;;3607689;39;20056;-60
2021/07/29 11:17:38;;;;;;;5.75;2.67;;;;;;;;;;3608070;39;20706;-60
2021/07/29 11:20:08;;;;;;;2.50;2.00;;;;;;;;;;3608062;39;20136;-60
2021/07/29 11:22:56;;;;;;;3.33;2.20;;;;;;;;;;3598451;39;20047;-56
2021/07/29 11:25:23;;;;;;;3.28;2.35;;;;;;;;;;3608049;39;20058;-59
2021/07/29 11:27:51;;;;;;;3.70;1.95;;;;;;;;;;3607061;39;20180;-60
2021/07/29 11:30:18;;;;;;;4.20;2.03;;;;;;;;;;3607739;39;20051;-57
2021/07/29 11:32:46;;;;;;;3.85;2.33;;;;;;;;;;3607520;39;20144;-60
2021/07/29 11:35:15;;;;;;;3.47;2.13;;;;;;;;;;3607973;39;20394;-60
2021/07/29 11:37:45;;;;;;;4.70;2.80;;;;;;;;;;3607285;39;20043;-59
2021/07/29 11:40:22;;;;;;;6.15;2.90;;;;;;;;;;3607864;39;20058;-60
2021/07/29 11:42:50;;;;;;;4.25;2.83;;;;;;;;;;3607622;39;20077;-58
2021/07/29 11:45:26;;;;;;;5.43;3.20;;;;;;;;;;3607375;39;20055;-58
2021/07/29 11:47:54;;;;;;;3.92;3.30;;;;;;;;;;3607828;39;20067;-58
2021/07/29 11:50:41;;;;;;;5.55;2.92;;;;;;;;;;3598572;39;20054;-58
2021/07/29 11:53:10;;;;;;;5.07;2.50;;;;;;;;;;3607902;39;20421;-58
2021/07/29 11:55:39;;;;;;;3.53;2.72;;;;;;;;;;3607283;39;20075;-60
2021/07/29 11:58:13;;;;;;;4.20;2.60;;;;;;;;;;3589742;39;20061;-59
2021/07/29 12:00:42;;;;;;;3.45;2.28;;;;;;;;;;3607612;39;20051;-57
2021/07/29 12:03:32;;;;;;;3.58;2.42;;;;;;;;;;3607305;39;20048;-60
2021/07/29 12:06:02;;;;;;;4.35;2.60;;;;;;;;;;3607647;39;20133;-61
2021/07/29 12:08:31;;;;;;;3.70;2.50;;;;;;;;;;3607568;39;20059;-57
2021/07/29 12:10:59;;;;;;;3.70;2.20;;;;;;;;;;3597859;39;20390;-58
2021/07/29 12:13:29;;;;;;;3.50;2.30;;;;;;;;;;3607171;39;20055;-58
2021/07/29 12:16:00;;;;;;;2.60;2.08;;;;;;;;;;3607097;39;20052;-62
2021/07/29 12:18:28;;;;;;;3.50;2.47;;;;;;;;;;3607348;39;20061;-61
2021/07/29 12:20:56;;;;;;;3.95;2.45;;;;;;;;;;3607767;39;20051;-60
2021/07/29 12:23:25;;;;;;;3.17;2.45;;;;;;;;;;3607288;39;20417;-60
2021/07/29 12:25:52;;;;;;;3.75;2.80;;;;;;;;;;3607352;39;20048;-61
2021/07/29 12:28:43;;;;;;;3.33;2.40;;;;;;;;;;3607688;39;20052;-62
2021/07/29 12:31:20;;;;;;;3.85;2.75;;;;;;;;;;3607212;39;20057;-62
2021/07/29 12:34:00;;;;;;;3.47;2.78;;;;;;;;;;3607400;39;20132;-61
2021/07/29 12:36:45;;;;;;;4.05;3.00;;;;;;;;;;3607573;39;20067;-59
2021/07/29 12:39:15;;;;;;;203.77;124.75;;;;;;;;;;3607096;39;20052;-59
2021/07/29 12:41:45;;;;;;;25.05;17.35;;;;;;;;;;3607425;39;20057;-60
2021/07/29 12:44:20;;;;;;;7.15;3.13;;;;;;;;;;3605919;39;20060;-56
2021/07/29 12:46:48;;;;;;;7.10;3.22;;;;;;;;;;3607066;39;20102;-60
2021/07/29 12:49:18;;;;;;;3.60;2.95;;;;;;;;;;3607190;39;20051;-59
2021/07/29 12:51:48;;;;;;;4.35;2.97;;;;;;;;;;3607470;39;20044;-61
2021/07/29 12:54:16;;;;;;;4.00;2.65;;;;;;;;;;3606969;39;20051;-58
2021/07/29 12:56:45;;;;;;;4.93;3.35;;;;;;;;;;3607339;39;20058;-59
2021/07/29 12:59:12;;;;;;;3.97;2.88;;;;;;;;;;3606871;39;20058;-61
2021/07/29 13:01:40;;;;;;;4.47;2.80;;;;;;;;;;3607262;39;20043;-59
2021/07/29 13:04:13;;;;;;;7.38;3.13;;;;;;;;;;3607389;39;20052;-57
2021/07/29 13:06:42;;;;;;;3.13;2.40;;;;;;;;;;3606852;39;20056;-59
2021/07/29 13:09:10;;;;;;;3.95;2.80;;;;;;;;;;3607283;39;20095;-59
2021/07/29 13:11:41;;;;;;;4.53;3.20;;;;;;;;;;3597326;39;20086;-59
2021/07/29 13:14:08;;;;;;;4.20;3.00;;;;;;;;;;3607486;39;20105;-57
2021/07/29 13:16:36;;;;;;;17.73;9.90;;;;;;;;;;3607267;39;20051;-60
2021/07/29 13:19:03;;;;;;;12.30;7.28;;;;;;;;;;3607014;39;20536;-57
2021/07/29 13:21:31;;;;;;;4.30;3.47;;;;;;;;;;3607201;39;20051;-58
2021/07/29 13:23:58;;;;;;;4.55;3.20;;;;;;;;;;3607212;39;20059;-55
2021/07/29 13:26:26;;;;;;;4.47;3.05;;;;;;;;;;3606590;39;20104;-59
2021/07/29 13:28:54;;;;;;;4.05;3.28;;;;;;;;;;3607396;39;20356;-59
2021/07/29 13:31:21;;;;;;;5.75;3.55;;;;;;;;;;3607056;39;20052;-60
2021/07/29 13:33:49;;;;;;;4.22;3.47;;;;;;;;;;3607079;39;20055;-59
2021/07/29 13:36:16;;;;;;;6.35;3.67;;;;;;;;;;3606542;39;20040;-56
2021/07/29 13:38:44;;;;;;;5.90;3.50;;;;;;;;;;3606787;39;20051;-58
2021/07/29 13:41:11;;;;;;;4.78;3.42;;;;;;;;;;3606862;39;20058;-55
2021/07/29 13:43:38;;;;;;;4.15;3.20;;;;;;;;;;3606798;39;20059;-55
2021/07/29 13:46:06;;;;;;;5.10;2.90;;;;;;;;;;3606698;39;20087;-57
2021/07/29 13:48:33;;;;;;;3.60;2.30;;;;;;;;;;3606915;39;20056;-60
2021/07/29 13:51:02;;;;;;;3.08;2.15;;;;;;;;;;3606651;39;20424;-58
2021/07/29 13:53:29;;;;;;;8.30;3.00;;;;;;;;;;3607064;39;20047;-58
2021/07/29 13:55:57;;;;;;;6.20;3.33;;;;;;;;;;3606903;39;20115;-59
2021/07/29 13:58:24;;;;;;;3.67;2.63;;;;;;;;;;3606470;39;20051;-59
2021/07/29 14:00:51;;;;;;;5.07;3.38;;;;;;;;;;3597525;39;20047;-58
2021/07/29 14:03:19;;;;;;;4.50;3.20;;;;;;;;;;3597550;39;20062;-59
2021/07/29 14:05:47;;;;;;;3.70;2.63;;;;;;;;;;3606244;39;20129;-58
2021/07/29 14:08:14;;;;;;;37.92;21.60;;;;;;;;;;3597443;39;20532;-58
2021/07/29 14:10:42;;;;;;;69.82;35.60;;;;;;;;;;3597145;39;20051;-58
2021/07/29 14:13:09;;;;;;;9.23;4.60;;;;;;;;;;3606518;39;20059;-57
2021/07/29 14:15:37;;;;;;;4.55;3.30;;;;;;;;;;3606472;39;20067;-58
2021/07/29 14:18:06;;;;;;;4.50;2.85;;;;;;;;;;3606891;39;20062;-58
2021/07/29 14:20:42;;;;;;;4.57;3.08;;;;;;;;;;3606745;39;20052;-58
2021/07/29 14:25:38;;;;;;;6.07;3.13;;;;;;;;;;3606547;39;21736;-59
2021/07/29 14:28:10;;;;;;;4.07;3.67;;;;;;;;;;3606304;39;20135;-59
2021/07/29 14:30:40;;;;;;;5.13;3.40;;;;;;;;;;3606225;39;20070;-63
2021/07/29 14:33:09;;;;;;;4.50;3.55;;;;;;;;;;3607075;39;20143;-57
2021/07/29 14:35:37;;;;;;;5.15;4.25;;;;;;;;;;3606076;39;20091;-59
2021/07/29 14:38:06;;;;;;;4.55;3.50;;;;;;;;;;3606737;39;20417;-60
2021/07/29 14:40:34;;;;;;;7.15;4.25;;;;;;;;;;3606460;39;20091;-60
2021/07/29 14:43:03;;;;;;;4.40;3.22;;;;;;;;;;3606151;39;20056;-56
2021/07/29 14:50:53;;;;;;;7.90;3.88;;;;;;;;;;3606199;39;20129;-59
2021/07/29 14:53:21;;;;;;;5.90;3.92;;;;;;;;;;3606332;39;20067;-59
2021/07/29 16:08:04;;;;;;;15.80;10.18;;;;;;;;;;3597826;40;20051;-59
2021/07/29 16:10:34;;;;;;;6.78;5.45;;;;;;;;;;3601889;39;20059;-58
2021/07/29 16:13:02;;;;;;;8.30;5.55;;;;;;;;;;3607323;39;20051;-59